Jemez Springs, NM (87025)

3:31 AM MDT on September 02, 2014 (GMT -0600)
Village of Jemez Springs | Change Station
CLOSE
Current Station
Personal Weather Station
Location: Jemez Springs, NM
Elevation: 6240 ft
Nearby Weather Stations

Elev 6240 ft 35.77 °N, 106.69 °W | Updated 13 seconds ago

Clear
Clear
60.8 °F
Feels Like 60.8 °F
N
2.0
Wind Variable Wind from WNW
Gusts 6.0 mph

Today
High -- | Low -- °F
--% Chance of Precip.
Yesterday
High -- | Low -- °F
Precip. -- in
6:39 AM 7:32 PM
Waxing Crescent, 49% visible
Pressure 30.23 in
Visibility 10.0 miles
Clouds Clear
Dew Point 34 °F
Humidity 36%
Rainfall 0.00 in
Snow Depth Not available.
UV 0 out of 12
Pollen 8.90 out of 12
Air Quality Not available.
Flu Activity Not available.
METAR KLAM 020915Z AUTO 00000KT 10SM CLR 19/M02 A3023 RMK AO2 T01921022

More Conditions Fewer Conditions

Pressure 30.23 in
Visibility 10.0 miles
Clouds Clear
Dew Point 34 °F
Humidity 36%
Rainfall 0.00 in
Snow Depth Not available.
UV 0 out of 12
Pollen 8.90 out of 12
Air Quality Not available.
Flu Activity Not available.
METAR KLAM 020915Z AUTO 00000KT 10SM CLR 19/M02 A3023 RMK AO2 T01921022

More Conditions Fewer Conditions

10-Day Weather Forecast

Almanac

Astronomy

Sep. 02, 2014 Rise Set
Actual Time 6:39 AM MDT 7:32 PM MDT
Civil Twilight 6:13 AM MDT 7:58 PM MDT
Nautical Twilight 5:42 AM MDT 8:29 PM MDT
Astronomical Twilight 5:10 AM MDT 9:01 PM MDT
Moon 2:12 PM MDT No Moon Set
Length of Visible Light 13h 45m
Length of Day
12h 53m
Tomorrow will be 2m 11s shorter.
Waxing Crescent, 49% of the Moon is Illuminated
Today
Waxing Crescent
Sep 2
First Quarter
Sep 8
Full
Sep 15
Last Quarter
Sep 24
New

Today's Extremes

State Highs State Lows

Community

WunderPhotos

Upload Photos

1,749,587 photos uploaded!

WunderBlogs® & News

Nearby

Snow Depth

Station Depth Elevation
Senorita Divide #2 0 in 8600 ft
Quemazon 1 in 9500 ft
Bateman 0 in 9300 ft
Wesner Springs 1 in 11120 ft
Hopewell 0 in 10000 ft

Earthquake Activity

City Distance Mag. Time & Date
Trinidad, Colorado 130 miles 2.7 4:20 AM MDT
2014-08-31
Minimum magnitude displayed is 2.5.

Coastal Water Temperatures

Place Temperature
No Stations Reporting

Nearby Weather Stations